Time;durP1;ratioP1;P1;durP2;ratioP2;P2;SDS_P1;SDS_P2;PMS_P1;PMS_P2;Temp;Humidity;BMP_temperature;BMP_pressure;BME280_temperature;BME280_humidity;BME280_pressure;Samples;Min_cycle;Max_cycle;Signal;HPM_P1;HPM_P2
2024/04/13 00:01:50;;;;;;;7.25;6.32;;;;;;;;;;5421545;21;20326;-58
2024/04/13 00:06:58;;;;;;;9.32;6.72;;;;;;;;;;5368466;21;20350;-65
2024/04/13 00:09:23;;;;;;;8.93;6.93;;;;;;;;;;5407595;21;20011;-65
2024/04/13 00:11:49;;;;;;;11.35;6.47;;;;;;;;;;5420644;26;20003;-65
2024/04/13 00:14:14;;;;;;;9.45;7.50;;;;;;;;;;5420618;26;20418;-64
2024/04/13 00:16:40;;;;;;;10.30;7.13;;;;;;;;;;5420565;26;19992;-64
2024/04/13 00:19:05;;;;;;;10.20;6.43;;;;;;;;;;5419616;26;19995;-64
2024/04/13 00:21:30;;;;;;;9.77;7.10;;;;;;;;;;5416712;26;20019;-58
2024/04/13 00:23:56;;;;;;;9.13;6.85;;;;;;;;;;5416807;26;20383;-58
2024/04/13 00:26:24;;;;;;;9.73;6.88;;;;;;;;;;5416307;26;20023;-58
2024/04/13 00:28:52;;;;;;;9.80;7.53;;;;;;;;;;5416272;26;20073;-58
2024/04/13 00:31:20;;;;;;;9.50;6.75;;;;;;;;;;5416458;26;19996;-57
2024/04/13 00:33:47;;;;;;;8.48;7.00;;;;;;;;;;5416682;26;19996;-57
2024/04/13 00:36:13;;;;;;;9.75;7.30;;;;;;;;;;5416569;26;20434;-58
2024/04/13 00:38:38;;;;;;;10.25;7.70;;;;;;;;;;5416360;26;19995;-58
2024/04/13 00:41:05;;;;;;;9.70;7.28;;;;;;;;;;5385062;26;20422;-58
2024/04/13 00:43:30;;;;;;;11.70;7.30;;;;;;;;;;5416394;26;19996;-58
2024/04/13 00:45:56;;;;;;;12.25;7.20;;;;;;;;;;5416190;26;20322;-58
2024/04/13 00:48:25;;;;;;;9.40;6.93;;;;;;;;;;5416344;26;19995;-58
2024/04/13 00:51:04;;;;;;;10.60;7.75;;;;;;;;;;5416873;26;19996;-58
2024/04/13 00:53:33;;;;;;;10.37;6.67;;;;;;;;;;5416896;26;20003;-58
2024/04/13 00:56:00;;;;;;;9.27;7.40;;;;;;;;;;5416073;26;19995;-58
2024/04/13 00:58:26;;;;;;;11.20;7.15;;;;;;;;;;5420028;26;20010;-57
2024/04/13 01:00:56;;;;;;;15.05;7.63;;;;;;;;;;5388425;26;20011;-57
2024/04/13 01:03:22;;;;;;;13.27;7.18;;;;;;;;;;5420213;26;20050;-57
2024/04/13 01:05:48;;;;;;;14.38;7.65;;;;;;;;;;5418162;26;19995;-57
2024/04/13 01:08:15;;;;;;;8.55;6.75;;;;;;;;;;5419495;26;20028;-58
2024/04/13 01:10:43;;;;;;;9.73;7.28;;;;;;;;;;5420206;26;20000;-58
2024/04/13 01:13:09;;;;;;;9.57;7.50;;;;;;;;;;5419765;26;20014;-57
2024/04/13 01:15:36;;;;;;;11.98;7.97;;;;;;;;;;5418194;26;20054;-59
2024/04/13 01:18:10;;;;;;;9.50;7.28;;;;;;;;;;5419722;26;20350;-59
2024/04/13 01:20:39;;;;;;;11.25;7.30;;;;;;;;;;5418964;26;20008;-59
2024/04/13 01:23:05;;;;;;;10.35;7.80;;;;;;;;;;5417910;26;19999;-59
2024/04/13 01:25:31;;;;;;;11.55;7.90;;;;;;;;;;5419585;26;20010;-59
2024/04/13 01:27:57;;;;;;;10.07;8.15;;;;;;;;;;5419531;26;20000;-59
2024/04/13 01:30:26;;;;;;;10.88;8.00;;;;;;;;;;5417358;26;20043;-59
2024/04/13 01:32:52;;;;;;;12.37;7.97;;;;;;;;;;5419583;26;20027;-59
2024/04/13 01:35:19;;;;;;;11.75;8.15;;;;;;;;;;5419539;26;20010;-59
2024/04/13 01:37:45;;;;;;;10.65;8.40;;;;;;;;;;5419352;26;19995;-59
2024/04/13 01:40:10;;;;;;;11.05;7.57;;;;;;;;;;5419411;26;20329;-59
2024/04/13 01:42:36;;;;;;;12.20;8.05;;;;;;;;;;5419437;26;19995;-58
2024/04/13 01:45:02;;;;;;;11.63;8.25;;;;;;;;;;5419326;26;20425;-59
2024/04/13 01:47:28;;;;;;;11.68;8.57;;;;;;;;;;5419319;26;19996;-59
2024/04/13 01:49:53;;;;;;;12.55;8.50;;;;;;;;;;5419000;26;20004;-58
2024/04/13 01:52:22;;;;;;;10.27;8.27;;;;;;;;;;5417657;26;20506;-59
2024/04/13 01:54:47;;;;;;;11.75;8.43;;;;;;;;;;5419230;26;19999;-59
2024/04/13 01:57:13;;;;;;;9.18;8.25;;;;;;;;;;5417458;26;20006;-59
2024/04/13 01:59:39;;;;;;;11.43;7.85;;;;;;;;;;5417496;26;19996;-59
2024/04/13 02:02:04;;;;;;;10.23;8.27;;;;;;;;;;5419012;26;19999;-58
2024/04/13 02:04:30;;;;;;;11.65;7.80;;;;;;;;;;5419062;26;20010;-59
2024/04/13 02:06:56;;;;;;;10.85;8.15;;;;;;;;;;5419013;26;20007;-59
2024/04/13 02:09:21;;;;;;;10.98;7.97;;;;;;;;;;5416917;26;20001;-58
2024/04/13 02:11:47;;;;;;;9.90;7.68;;;;;;;;;;5417769;26;19996;-59
2024/04/13 02:14:12;;;;;;;12.40;8.05;;;;;;;;;;5418386;26;20451;-58
2024/04/13 02:16:37;;;;;;;11.18;7.93;;;;;;;;;;5418879;26;20371;-58
2024/04/13 02:19:06;;;;;;;9.93;7.65;;;;;;;;;;5418080;26;20411;-58
2024/04/13 02:21:31;;;;;;;11.43;8.00;;;;;;;;;;5414814;26;20045;-57
2024/04/13 02:23:56;;;;;;;9.13;7.97;;;;;;;;;;5414879;26;20345;-57
2024/04/13 02:26:22;;;;;;;12.55;7.45;;;;;;;;;;5414806;26;19996;-59
2024/04/13 02:28:47;;;;;;;9.60;7.95;;;;;;;;;;5414482;26;19995;-59
2024/04/13 02:31:13;;;;;;;12.48;7.80;;;;;;;;;;5413921;26;20000;-59
2024/04/13 02:33:39;;;;;;;9.43;7.32;;;;;;;;;;5413938;26;20010;-59
2024/04/13 02:36:04;;;;;;;11.55;7.13;;;;;;;;;;5414839;26;20010;-59
2024/04/13 02:38:30;;;;;;;9.07;7.70;;;;;;;;;;5414248;26;20003;-57
2024/04/13 02:40:56;;;;;;;9.30;7.30;;;;;;;;;;5414552;26;20045;-57
2024/04/13 02:43:22;;;;;;;10.25;7.15;;;;;;;;;;5412556;26;20384;-58
2024/04/13 02:45:48;;;;;;;9.38;7.47;;;;;;;;;;5414366;26;20003;-58
2024/04/13 02:48:13;;;;;;;9.70;7.63;;;;;;;;;;5414110;26;20006;-58
2024/04/13 02:50:39;;;;;;;10.20;7.43;;;;;;;;;;5415024;26;20072;-58
2024/04/13 02:53:04;;;;;;;9.63;7.25;;;;;;;;;;5418318;26;19992;-58
2024/04/13 02:55:29;;;;;;;12.98;8.57;;;;;;;;;;5418313;26;19992;-58
2024/04/13 02:57:55;;;;;;;11.77;8.80;;;;;;;;;;5417935;26;19988;-58
2024/04/13 03:00:21;;;;;;;11.90;8.32;;;;;;;;;;5418386;26;19995;-58
2024/04/13 03:02:46;;;;;;;11.80;8.45;;;;;;;;;;5418074;26;19999;-58
2024/04/13 03:05:12;;;;;;;9.48;8.32;;;;;;;;;;5386407;26;20519;-58
2024/04/13 03:07:38;;;;;;;12.82;8.48;;;;;;;;;;5416280;26;20010;-58
2024/04/13 03:10:05;;;;;;;10.25;8.40;;;;;;;;;;5417766;26;19999;-58
2024/04/13 03:12:30;;;;;;;10.63;8.32;;;;;;;;;;5418238;26;20000;-58
2024/04/13 03:14:55;;;;;;;12.63;8.50;;;;;;;;;;5418125;26;20441;-58
2024/04/13 03:17:21;;;;;;;10.80;8.25;;;;;;;;;;5418151;26;20008;-58
2024/04/13 03:19:46;;;;;;;12.70;8.43;;;;;;;;;;5418130;26;20010;-58
2024/04/13 03:22:11;;;;;;;12.50;8.30;;;;;;;;;;5418121;26;19992;-58
2024/04/13 03:24:37;;;;;;;9.63;7.75;;;;;;;;;;5418066;26;20000;-58
2024/04/13 03:27:02;;;;;;;11.35;8.45;;;;;;;;;;5417984;26;20082;-58
2024/04/13 03:29:28;;;;;;;14.48;8.88;;;;;;;;;;5417949;26;19995;-58
2024/04/13 03:31:53;;;;;;;11.07;8.52;;;;;;;;;;5416171;26;20011;-58
2024/04/13 03:34:19;;;;;;;13.45;8.63;;;;;;;;;;5416249;26;20000;-58
2024/04/13 03:36:44;;;;;;;11.88;8.18;;;;;;;;;;5417135;26;20365;-61
2024/04/13 03:39:10;;;;;;;11.05;8.27;;;;;;;;;;5417342;26;20064;-58
2024/04/13 03:41:36;;;;;;;10.98;8.30;;;;;;;;;;5417715;26;20005;-59
2024/04/13 03:44:01;;;;;;;10.43;8.30;;;;;;;;;;5419626;26;19995;-58
2024/04/13 03:46:27;;;;;;;9.75;8.35;;;;;;;;;;5421360;26;19991;-59
2024/04/13 03:48:52;;;;;;;12.52;8.23;;;;;;;;;;5421158;26;20317;-59
2024/04/13 03:51:18;;;;;;;11.77;8.00;;;;;;;;;;5421282;26;20306;-58
2024/04/13 03:53:43;;;;;;;12.68;8.32;;;;;;;;;;5421157;26;19995;-58
2024/04/13 03:56:09;;;;;;;12.50;8.43;;;;;;;;;;5421230;26;20008;-58
2024/04/13 03:58:35;;;;;;;10.73;8.60;;;;;;;;;;5389737;26;20310;-58
2024/04/13 04:01:01;;;;;;;12.65;8.63;;;;;;;;;;5421082;26;20007;-58
2024/04/13 04:03:26;;;;;;;10.88;8.50;;;;;;;;;;5420712;26;20001;-57
2024/04/13 04:05:54;;;;;;;12.65;8.65;;;;;;;;;;5418751;26;19996;-58
2024/04/13 04:08:19;;;;;;;12.25;8.70;;;;;;;;;;5420532;26;20006;-58
2024/04/13 04:10:45;;;;;;;10.15;8.02;;;;;;;;;;5421024;26;20000;-58
2024/04/13 04:13:10;;;;;;;12.18;8.30;;;;;;;;;;5420958;26;19992;-57
2024/04/13 04:15:36;;;;;;;12.05;8.40;;;;;;;;;;5421026;26;20010;-57
2024/04/13 04:18:02;;;;;;;12.27;8.93;;;;;;;;;;5389430;26;20413;-58
2024/04/13 04:20:30;;;;;;;15.02;8.82;;;;;;;;;;5420197;26;20445;-57
2024/04/13 04:22:55;;;;;;;13.02;8.73;;;;;;;;;;5419420;26;19999;-58
2024/04/13 04:25:21;;;;;;;14.73;9.63;;;;;;;;;;5418029;26;20044;-57
2024/04/13 04:27:46;;;;;;;16.48;9.38;;;;;;;;;;5420405;26;20411;-57
2024/04/13 04:30:12;;;;;;;11.07;8.32;;;;;;;;;;5420058;26;20448;-57
2024/04/13 04:32:38;;;;;;;9.93;7.78;;;;;;;;;;5420385;26;20007;-57
2024/04/13 04:35:06;;;;;;;9.93;7.45;;;;;;;;;;5420363;26;20006;-57
2024/04/13 04:37:31;;;;;;;11.75;8.40;;;;;;;;;;5418537;26;20006;-58
2024/04/13 04:39:57;;;;;;;11.43;9.10;;;;;;;;;;5419987;26;20314;-57
2024/04/13 04:42:24;;;;;;;11.93;8.95;;;;;;;;;;5420274;26;20007;-57
2024/04/13 04:44:49;;;;;;;11.45;8.88;;;;;;;;;;5420184;26;20039;-57
2024/04/13 04:47:14;;;;;;;13.35;9.63;;;;;;;;;;5420191;26;19997;-58
2024/04/13 04:49:40;;;;;;;13.93;9.55;;;;;;;;;;5419901;26;20000;-58
2024/04/13 04:52:06;;;;;;;12.50;10.13;;;;;;;;;;5419687;26;20007;-58
2024/04/13 04:54:31;;;;;;;14.25;9.38;;;;;;;;;;5419037;26;20036;-58
2024/04/13 04:56:56;;;;;;;12.45;9.27;;;;;;;;;;5420089;26;20000;-58
2024/04/13 04:59:22;;;;;;;13.15;9.02;;;;;;;;;;5419969;26;20003;-58
2024/04/13 05:01:47;;;;;;;15.70;9.77;;;;;;;;;;5419939;26;19995;-59
2024/04/13 05:04:13;;;;;;;16.98;9.68;;;;;;;;;;5419835;26;19995;-59
2024/04/13 05:06:38;;;;;;;14.05;10.13;;;;;;;;;;5419942;26;20422;-59
2024/04/13 05:09:09;;;;;;;12.68;8.93;;;;;;;;;;5420213;26;20311;-59
2024/04/13 05:11:35;;;;;;;14.95;10.63;;;;;;;;;;5420147;26;20000;-58
2024/04/13 05:14:00;;;;;;;13.32;9.90;;;;;;;;;;5419799;26;20006;-58
2024/04/13 05:16:26;;;;;;;10.27;9.18;;;;;;;;;;5420137;26;20068;-57
2024/04/13 05:18:51;;;;;;;17.00;10.68;;;;;;;;;;5418290;26;19995;-57
2024/04/13 05:21:17;;;;;;;15.98;11.00;;;;;;;;;;5420003;26;19995;-57
2024/04/13 05:23:42;;;;;;;15.48;11.00;;;;;;;;;;5418142;26;19992;-57
2024/04/13 05:26:08;;;;;;;16.02;11.18;;;;;;;;;;5387640;26;20000;-58
2024/04/13 05:28:33;;;;;;;16.08;11.00;;;;;;;;;;5388078;26;20064;-58
2024/04/13 05:31:01;;;;;;;15.80;10.50;;;;;;;;;;5419592;26;20002;-57
2024/04/13 05:33:26;;;;;;;18.63;11.75;;;;;;;;;;5419504;26;20086;-58
2024/04/13 05:35:52;;;;;;;19.13;10.73;;;;;;;;;;5388057;26;20457;-58
2024/04/13 05:38:18;;;;;;;15.05;11.13;;;;;;;;;;5419490;26;19996;-58
2024/04/13 05:40:44;;;;;;;16.63;10.93;;;;;;;;;;5419416;26;20430;-58
2024/04/13 05:43:09;;;;;;;17.88;11.18;;;;;;;;;;5388100;26;20006;-58
2024/04/13 05:45:38;;;;;;;16.20;12.10;;;;;;;;;;5419017;26;20060;-58
2024/04/13 05:48:03;;;;;;;16.17;11.23;;;;;;;;;;5419284;26;20094;-58
2024/04/13 05:50:28;;;;;;;16.73;10.75;;;;;;;;;;5418829;26;20000;-57
2024/04/13 05:52:55;;;;;;;15.52;10.80;;;;;;;;;;5419277;26;20307;-58
2024/04/13 05:55:20;;;;;;;15.57;10.27;;;;;;;;;;5419822;26;20068;-57
2024/04/13 05:57:46;;;;;;;12.70;9.32;;;;;;;;;;5419230;26;20003;-58
2024/04/13 06:00:11;;;;;;;14.32;9.45;;;;;;;;;;5419229;26;19991;-58
2024/04/13 06:02:37;;;;;;;16.65;10.23;;;;;;;;;;5419112;26;19995;-58
2024/04/13 06:05:03;;;;;;;16.38;10.25;;;;;;;;;;5419146;26;20011;-57
2024/04/13 06:07:29;;;;;;;18.58;10.65;;;;;;;;;;5419104;26;19999;-58
2024/04/13 06:09:54;;;;;;;14.55;10.30;;;;;;;;;;5418780;26;20007;-58
2024/04/13 06:12:19;;;;;;;15.65;10.05;;;;;;;;;;5419335;26;19992;-57
2024/04/13 06:14:49;;;;;;;17.90;11.45;;;;;;;;;;5419061;26;20007;-56
2024/04/13 06:17:14;;;;;;;19.87;11.00;;;;;;;;;;5419194;26;20007;-56
2024/04/13 06:19:40;;;;;;;21.83;12.55;;;;;;;;;;5419345;26;20585;-56
2024/04/13 06:22:08;;;;;;;19.73;10.85;;;;;;;;;;5419181;26;19995;-56
2024/04/13 06:24:36;;;;;;;14.02;8.73;;;;;;;;;;5416972;26;19996;-62
2024/04/13 06:27:02;;;;;;;13.43;8.55;;;;;;;;;;5418907;26;19999;-63
2024/04/13 06:29:28;;;;;;;15.85;9.45;;;;;;;;;;5418095;26;20003;-63
2024/04/13 06:31:53;;;;;;;20.23;12.70;;;;;;;;;;5418204;26;20011;-63
2024/04/13 06:34:18;;;;;;;15.75;9.60;;;;;;;;;;5418339;26;20434;-63
2024/04/13 06:36:44;;;;;;;11.35;7.20;;;;;;;;;;5416158;26;19995;-62
2024/04/13 06:39:14;;;;;;;11.43;6.60;;;;;;;;;;5416057;26;19999;-63
2024/04/13 06:41:40;;;;;;;;;;;;;;;;;;5418558;26;20014;-62
2024/04/13 06:44:05;;;;;;;6.55;4.82;;;;;;;;;;5416999;26;19925;-62
2024/04/13 06:46:31;;;;;;;5.32;4.82;;;;;;;;;;5407175;26;20004;-62
2024/04/13 06:48:56;;;;;;;4.80;3.42;;;;;;;;;;5417338;26;20011;-62
2024/04/13 06:51:22;;;;;;;3.83;3.40;;;;;;;;;;5417422;26;20434;-62
2024/04/13 06:53:48;;;;;;;4.35;3.95;;;;;;;;;;5416949;26;20004;-62
2024/04/13 06:56:14;;;;;;;6.00;3.63;;;;;;;;;;5415490;26;20045;-62
2024/04/13 06:58:40;;;;;;;4.32;3.92;;;;;;;;;;5416950;26;20019;-62
2024/04/13 07:01:05;;;;;;;4.55;4.05;;;;;;;;;;5417519;26;20361;-63
2024/04/13 07:03:31;;;;;;;5.22;3.33;;;;;;;;;;5415311;26;20004;-62
2024/04/13 07:05:57;;;;;;;4.97;3.75;;;;;;;;;;5416990;26;20010;-62
2024/04/13 07:08:23;;;;;;;4.65;4.20;;;;;;;;;;5416792;26;20007;-63
2024/04/13 07:10:48;;;;;;;4.05;3.63;;;;;;;;;;5416331;26;19999;-62
2024/04/13 07:13:14;;;;;;;4.60;4.20;;;;;;;;;;5414403;26;20400;-62
2024/04/13 07:15:39;;;;;;;4.22;3.78;;;;;;;;;;5414721;26;19999;-62
2024/04/13 07:18:05;;;;;;;4.93;3.97;;;;;;;;;;5417859;26;20015;-62
2024/04/13 07:20:30;;;;;;;5.88;4.30;;;;;;;;;;5420590;26;20010;-62
2024/04/13 07:22:56;;;;;;;4.55;4.05;;;;;;;;;;5420458;26;20023;-62
2024/04/13 07:25:22;;;;;;;5.50;4.95;;;;;;;;;;5420309;26;19999;-62
2024/04/13 07:27:47;;;;;;;6.07;5.05;;;;;;;;;;5420683;26;19999;-62
2024/04/13 07:30:13;;;;;;;5.65;4.47;;;;;;;;;;5420329;26;20341;-62
2024/04/13 07:32:38;;;;;;;5.45;3.38;;;;;;;;;;5420596;26;20333;-62
2024/04/13 07:35:03;;;;;;;7.40;5.07;;;;;;;;;;5420183;26;19996;-61
2024/04/13 07:37:29;;;;;;;6.45;4.65;;;;;;;;;;5420581;26;20004;-61
2024/04/13 07:39:55;;;;;;;8.68;6.28;;;;;;;;;;5420343;26;20412;-61
2024/04/13 07:42:20;;;;;;;8.65;6.47;;;;;;;;;;5420097;26;19999;-61
2024/04/13 07:44:45;;;;;;;7.78;5.63;;;;;;;;;;5419874;26;19995;-62
2024/04/13 07:47:11;;;;;;;12.77;7.35;;;;;;;;;;5420136;26;20006;-61
2024/04/13 07:49:36;;;;;;;9.43;7.03;;;;;;;;;;5420073;26;20507;-62
2024/04/13 07:52:02;;;;;;;12.35;8.02;;;;;;;;;;5417581;26;20002;-62
2024/04/13 07:54:27;;;;;;;11.95;7.80;;;;;;;;;;5419756;26;20003;-62
2024/04/13 07:56:53;;;;;;;9.20;8.20;;;;;;;;;;5419603;26;20050;-61
2024/04/13 07:59:18;;;;;;;10.73;8.07;;;;;;;;;;5419982;26;20003;-61
2024/04/13 08:01:43;;;;;;;10.75;7.78;;;;;;;;;;5419909;26;19995;-61
2024/04/13 08:04:09;;;;;;;10.98;8.10;;;;;;;;;;5420032;26;20064;-62
2024/04/13 08:06:39;;;;;;;41.00;15.27;;;;;;;;;;5419890;26;20004;-62
2024/04/13 08:09:05;;;;;;;22.33;12.88;;;;;;;;;;5419648;26;20011;-62
2024/04/13 08:11:32;;;;;;;24.02;14.48;;;;;;;;;;5420154;26;19996;-61
2024/04/13 08:13:58;;;;;;;17.27;12.15;;;;;;;;;;5416902;26;19999;-61
2024/04/13 08:16:25;;;;;;;12.30;7.88;;;;;;;;;;5417822;26;20381;-62
2024/04/13 08:18:50;;;;;;;19.08;11.07;;;;;;;;;;5418038;26;20327;-61
2024/04/13 08:21:16;;;;;;;16.90;10.55;;;;;;;;;;5419781;26;20045;-61
2024/04/13 08:23:42;;;;;;;15.32;10.82;;;;;;;;;;5419797;26;20007;-61
2024/04/13 08:26:07;;;;;;;16.52;10.98;;;;;;;;;;5419669;26;20012;-61
2024/04/13 08:28:33;;;;;;;15.70;10.60;;;;;;;;;;5419929;26;19995;-62
2024/04/13 08:31:01;;;;;;;17.70;10.82;;;;;;;;;;5387223;26;19999;-61
2024/04/13 08:33:27;;;;;;;14.82;10.00;;;;;;;;;;5419888;26;20003;-62
2024/04/13 08:36:05;;;;;;;24.20;9.73;;;;;;;;;;5418202;26;20437;-62
2024/04/13 08:38:32;;;;;;;15.95;8.18;;;;;;;;;;5418834;26;20039;-61
2024/04/13 08:41:00;;;;;;;14.25;10.75;;;;;;;;;;5419413;26;20347;-62
2024/04/13 08:43:25;;;;;;;17.95;10.48;;;;;;;;;;5387899;26;20013;-62
2024/04/13 08:45:51;;;;;;;17.05;10.85;;;;;;;;;;5387973;26;20000;-61
2024/04/13 08:48:16;;;;;;;14.10;10.35;;;;;;;;;;5418813;26;20004;-62
2024/04/13 08:50:42;;;;;;;14.82;10.23;;;;;;;;;;5419141;26;20507;-62
2024/04/13 08:53:08;;;;;;;12.10;9.48;;;;;;;;;;5418938;26;19996;-62
2024/04/13 08:55:34;;;;;;;14.90;9.98;;;;;;;;;;5387376;26;20011;-62
2024/04/13 08:58:01;;;;;;;12.82;9.13;;;;;;;;;;5418748;26;20333;-62
2024/04/13 09:00:27;;;;;;;14.43;10.13;;;;;;;;;;5414088;26;19999;-63
2024/04/13 09:02:55;;;;;;;16.00;9.70;;;;;;;;;;5415412;26;20008;-58
2024/04/13 09:05:20;;;;;;;15.57;8.68;;;;;;;;;;5414602;26;20483;-66
2024/04/13 09:07:46;;;;;;;14.98;9.75;;;;;;;;;;5414628;26;19999;-65
2024/04/13 09:10:12;;;;;;;15.02;9.80;;;;;;;;;;5415817;26;19996;-65
2024/04/13 09:12:38;;;;;;;16.08;10.23;;;;;;;;;;5415671;26;20015;-65
2024/04/13 09:15:04;;;;;;;14.90;9.65;;;;;;;;;;5414262;26;19996;-63
2024/04/13 09:17:32;;;;;;;14.18;8.10;;;;;;;;;;5413759;26;20004;-59
2024/04/13 09:19:58;;;;;;;10.38;6.93;;;;;;;;;;5413287;26;20007;-60
2024/04/13 09:22:24;;;;;;;10.85;6.80;;;;;;;;;;5418342;26;20014;-60
2024/04/13 09:24:50;;;;;;;13.50;8.10;;;;;;;;;;5417112;26;20007;-61
2024/04/13 09:27:23;;;;;;;10.18;7.03;;;;;;;;;;5418671;26;20053;-67
2024/04/13 09:30:05;;;;;;;7.25;6.28;;;;;;;;;;5414249;26;19996;-64
2024/04/13 09:32:31;;;;;;;7.75;6.60;;;;;;;;;;5372145;26;20010;-60
2024/04/13 09:35:06;;;;;;;9.30;6.28;;;;;;;;;;5418222;26;19996;-74
2024/04/13 09:37:32;;;;;;;8.40;6.43;;;;;;;;;;5376324;26;20467;-65
2024/04/13 09:40:03;;;;;;;6.88;5.38;;;;;;;;;;5411414;26;19996;-65
2024/04/13 09:42:29;;;;;;;6.55;4.53;;;;;;;;;;5414655;26;19995;-66
2024/04/13 09:45:02;;;;;;;7.18;5.07;;;;;;;;;;5418537;26;20002;-69
2024/04/13 09:47:27;;;;;;;5.63;4.28;;;;;;;;;;5416402;26;20367;-62
2024/04/13 09:49:52;;;;;;;7.93;4.70;;;;;;;;;;5418247;26;19991;-62
2024/04/13 09:52:18;;;;;;;3.60;3.05;;;;;;;;;;5418359;26;19996;-62
2024/04/13 09:54:44;;;;;;;4.72;3.83;;;;;;;;;;5418320;26;20007;-62
2024/04/13 09:57:10;;;;;;;4.10;3.47;;;;;;;;;;5415863;26;20014;-61
2024/04/13 09:59:38;;;;;;;5.45;3.42;;;;;;;;;;5416339;26;19995;-62
2024/04/13 10:02:04;;;;;;;3.85;1.42;;;;;;;;;;5417519;26;20011;-62
2024/04/13 10:04:30;;;;;;;1.88;1.75;;;;;;;;;;5416495;26;20003;-61
2024/04/13 10:06:56;;;;;;;3.30;3.00;;;;;;;;;;5414256;26;20004;-62
2024/04/13 10:09:23;;;;;;;3.28;2.60;;;;;;;;;;5414203;26;20018;-61
2024/04/13 10:11:51;;;;;;;3.33;3.13;;;;;;;;;;5414408;26;20000;-62
2024/04/13 10:14:18;;;;;;;1.25;1.13;;;;;;;;;;5379291;26;20000;-62
2024/04/13 10:16:45;;;;;;;3.38;2.80;;;;;;;;;;5403799;26;19999;-61
2024/04/13 10:19:10;;;;;;;2.65;2.45;;;;;;;;;;5415335;26;20110;-61
2024/04/13 10:21:37;;;;;;;2.83;1.88;;;;;;;;;;5416105;26;19999;-61
2024/04/13 10:24:02;;;;;;;2.78;2.58;;;;;;;;;;5384072;26;20318;-62
2024/04/13 10:26:28;;;;;;;0.98;0.98;;;;;;;;;;5416339;26;20033;-61
2024/04/13 10:29:01;;;;;;;1.92;1.77;;;;;;;;;;5417388;26;20345;-62
2024/04/13 10:31:27;;;;;;;2.35;2.15;;;;;;;;;;5413033;26;20031;-71
2024/04/13 10:33:53;;;;;;;2.95;2.70;;;;;;;;;;5417772;26;20068;-61
2024/04/13 10:36:26;;;;;;;3.95;2.78;;;;;;;;;;5416851;26;20003;-61
2024/04/13 10:38:54;;;;;;;3.33;2.33;;;;;;;;;;5417500;26;20045;-68
2024/04/13 10:41:30;;;;;;;1.08;1.00;;;;;;;;;;5417821;26;19995;-61
2024/04/13 10:43:59;;;;;;;4.30;3.30;;;;;;;;;;5417522;26;20370;-65
2024/04/13 10:46:24;;;;;;;3.35;2.25;;;;;;;;;;5417171;26;20003;-64
2024/04/13 10:48:51;;;;;;;2.13;1.70;;;;;;;;;;5416685;26;20004;-62
2024/04/13 10:51:18;;;;;;;1.70;1.58;;;;;;;;;;5417356;26;19999;-55
2024/04/13 10:53:44;;;;;;;3.63;1.45;;;;;;;;;;5423763;21;20316;-58
2024/04/13 10:56:09;;;;;;;2.42;2.15;;;;;;;;;;5380622;26;20047;-56
2024/04/13 10:58:35;;;;;;;2.20;2.00;;;;;;;;;;5378436;26;20004;-63
2024/04/13 11:01:01;;;;;;;1.40;1.30;;;;;;;;;;5380490;26;20038;-55
2024/04/13 11:03:27;;;;;;;2.38;1.38;;;;;;;;;;5351155;26;20009;-60
2024/04/13 11:05:53;;;;;;;4.50;2.00;;;;;;;;;;5378217;26;20000;-61
2024/04/13 11:08:20;;;;;;;1.67;1.58;;;;;;;;;;5380596;26;20000;-62
2024/04/13 11:10:50;;;;;;;3.70;1.52;;;;;;;;;;5381705;26;20193;-65
2024/04/13 11:13:17;;;;;;;3.28;1.67;;;;;;;;;;5350777;26;20100;-62
2024/04/13 11:15:42;;;;;;;1.48;1.38;;;;;;;;;;5381891;26;20012;-61
2024/04/13 11:18:08;;;;;;;5.57;2.50;;;;;;;;;;5381572;26;20011;-61
2024/04/13 11:20:35;;;;;;;1.15;1.13;;;;;;;;;;5381483;26;20008;-61
2024/04/13 11:23:01;;;;;;;2.65;1.13;;;;;;;;;;5322071;26;20000;-61
2024/04/13 11:25:27;;;;;;;4.40;2.58;;;;;;;;;;5381405;26;20412;-69
2024/04/13 11:27:52;;;;;;;2.30;2.10;;;;;;;;;;5350398;26;20024;-60
2024/04/13 11:30:18;;;;;;;2.38;2.17;;;;;;;;;;5350011;26;20469;-61
2024/04/13 11:32:44;;;;;;;4.18;2.45;;;;;;;;;;5381382;26;20453;-61
2024/04/13 11:35:12;;;;;;;1.95;1.77;;;;;;;;;;5381427;26;20323;-61
2024/04/13 11:37:38;;;;;;;2.85;1.92;;;;;;;;;;5381347;26;20334;-61
2024/04/13 11:40:08;;;;;;;1.10;1.00;;;;;;;;;;5381208;26;20331;-62
2024/04/13 11:42:33;;;;;;;2.85;2.40;;;;;;;;;;5380922;26;20442;-62
2024/04/13 11:44:59;;;;;;;2.63;1.70;;;;;;;;;;5380972;26;19992;-62
2024/04/13 11:47:29;;;;;;;3.83;2.40;;;;;;;;;;5380989;26;20004;-61
2024/04/13 11:49:54;;;;;;;1.98;1.48;;;;;;;;;;5380676;26;20004;-61
2024/04/13 11:52:20;;;;;;;2.38;2.17;;;;;;;;;;5380755;26;20563;-56
2024/04/13 11:54:46;;;;;;;1.63;1.40;;;;;;;;;;5380969;26;20001;-55
2024/04/13 11:57:11;;;;;;;1.20;1.10;;;;;;;;;;5380477;26;20065;-55
2024/04/13 11:59:39;;;;;;;1.92;1.83;;;;;;;;;;5380363;26;19993;-60
2024/04/13 12:02:05;;;;;;;1.50;1.20;;;;;;;;;;5350076;26;20461;-60
2024/04/13 12:04:30;;;;;;;1.10;1.00;;;;;;;;;;5383192;26;20000;-60
2024/04/13 12:06:56;;;;;;;1.67;1.20;;;;;;;;;;5384553;26;20000;-61
2024/04/13 12:09:21;;;;;;;1.67;1.33;;;;;;;;;;5384229;26;20005;-60
2024/04/13 12:11:47;;;;;;;1.25;1.08;;;;;;;;;;5384195;26;20026;-60
2024/04/13 12:14:14;;;;;;;1.08;1.08;;;;;;;;;;5353106;26;20000;-61
2024/04/13 12:16:39;;;;;;;13.90;1.40;;;;;;;;;;5384234;26;20000;-61
2024/04/13 12:19:04;;;;;;;1.10;1.10;;;;;;;;;;5384160;26;20326;-60
2024/04/13 12:21:30;;;;;;;2.40;1.73;;;;;;;;;;5384132;26;20008;-61
2024/04/13 12:23:56;;;;;;;1.27;1.17;;;;;;;;;;5384088;26;20004;-60
2024/04/13 12:26:21;;;;;;;1.00;0.85;;;;;;;;;;5384338;26;19996;-60
2024/04/13 12:28:47;;;;;;;0.80;0.80;;;;;;;;;;5383903;26;20003;-60
2024/04/13 12:31:14;;;;;;;1.67;1.17;;;;;;;;;;5353440;26;20000;-60
2024/04/13 12:33:41;;;;;;;1.30;1.13;;;;;;;;;;5353911;26;20004;-60
2024/04/13 12:36:09;;;;;;;1.55;0.98;;;;;;;;;;5384246;26;20429;-61
2024/04/13 12:38:35;;;;;;;1.58;1.38;;;;;;;;;;5353614;26;20041;-61
2024/04/13 12:41:00;;;;;;;0.80;0.77;;;;;;;;;;5384104;26;20431;-60
2024/04/13 12:43:26;;;;;;;1.00;0.88;;;;;;;;;;5352966;26;20044;-59
2024/04/13 12:45:51;;;;;;;0.95;0.90;;;;;;;;;;5383749;26;20012;-59
2024/04/13 12:48:17;;;;;;;1.58;1.13;;;;;;;;;;5383767;26;19992;-59
2024/04/13 12:50:42;;;;;;;1.30;0.82;;;;;;;;;;5383802;26;20068;-60
2024/04/13 12:53:08;;;;;;;0.98;0.95;;;;;;;;;;5383616;26;20431;-60
2024/04/13 12:55:34;;;;;;;2.80;1.50;;;;;;;;;;5383781;26;19996;-54
2024/04/13 12:58:02;;;;;;;0.55;0.55;;;;;;;;;;5383737;26;19996;-59
2024/04/13 13:00:27;;;;;;;1.75;0.95;;;;;;;;;;5383478;26;20075;-61
2024/04/13 13:02:53;;;;;;;1.15;1.13;;;;;;;;;;5383439;26;20008;-61
2024/04/13 13:05:19;;;;;;;0.80;0.80;;;;;;;;;;5383424;26;20346;-60
2024/04/13 13:07:44;;;;;;;1.15;1.15;;;;;;;;;;5383420;26;20000;-60
2024/04/13 13:10:09;;;;;;;9.25;1.40;;;;;;;;;;5352592;26;20072;-60
2024/04/13 13:12:35;;;;;;;0.90;0.90;;;;;;;;;;5383401;26;20447;-60
2024/04/13 13:15:01;;;;;;;5.85;2.38;;;;;;;;;;5383467;26;20004;-60
2024/04/13 13:17:27;;;;;;;2.00;1.80;;;;;;;;;;5351421;26;20004;-60
2024/04/13 13:19:53;;;;;;;2.25;1.80;;;;;;;;;;5383384;26;20070;-60
2024/04/13 13:22:19;;;;;;;1.65;1.55;;;;;;;;;;5383527;26;20009;-60
2024/04/13 13:24:44;;;;;;;1.33;1.23;;;;;;;;;;5383271;26;20004;-59
2024/04/13 13:27:10;;;;;;;1.60;1.23;;;;;;;;;;5383163;26;20084;-59
2024/04/13 13:29:35;;;;;;;2.00;1.80;;;;;;;;;;5383399;26;20000;-59
2024/04/13 13:32:01;;;;;;;3.80;2.20;;;;;;;;;;5383332;26;19992;-59
2024/04/13 13:34:26;;;;;;;3.55;1.70;;;;;;;;;;5352339;26;20457;-59
2024/04/13 13:36:52;;;;;;;2.70;1.60;;;;;;;;;;5383227;26;20006;-60
2024/04/13 13:39:17;;;;;;;3.92;1.50;;;;;;;;;;5383241;26;20450;-61
2024/04/13 13:41:43;;;;;;;1.52;1.23;;;;;;;;;;5382866;26;20004;-61
2024/04/13 13:44:09;;;;;;;1.38;1.27;;;;;;;;;;5382985;26;20000;-60
2024/04/13 13:46:35;;;;;;;2.90;1.35;;;;;;;;;;5382820;26;20011;-62
2024/04/13 13:49:01;;;;;;;1.33;1.23;;;;;;;;;;5380242;26;20000;-61
2024/04/13 13:51:26;;;;;;;1.40;1.30;;;;;;;;;;5379095;26;20351;-63
2024/04/13 13:53:52;;;;;;;0.85;0.85;;;;;;;;;;5379107;26;19992;-62
2024/04/13 13:56:17;;;;;;;2.15;1.65;;;;;;;;;;5379548;26;20003;-62
2024/04/13 13:58:42;;;;;;;1.77;1.55;;;;;;;;;;5380834;26;20427;-62
2024/04/13 14:01:08;;;;;;;1.95;1.00;;;;;;;;;;5383269;26;20385;-63
2024/04/13 14:03:33;;;;;;;2.67;1.52;;;;;;;;;;5383325;26;19992;-62
2024/04/13 14:06:05;;;;;;;2.45;1.65;;;;;;;;;;5352783;26;20072;-62
2024/04/13 14:08:31;;;;;;;5.22;2.08;;;;;;;;;;5383358;26;20004;-62
2024/04/13 14:10:56;;;;;;;1.20;1.20;;;;;;;;;;5383252;26;20011;-63
2024/04/13 14:13:22;;;;;;;3.78;1.60;;;;;;;;;;5352293;26;20000;-63
2024/04/13 14:19:22;;;;;;;3.25;1.40;;;;;;;;;;5384622;26;20007;-63
2024/04/13 14:25:23;;;;;;;2.08;1.42;;;;;;;;;;5384336;26;20007;-62
2024/04/13 14:31:24;;;;;;;3.28;1.42;;;;;;;;;;5384507;26;20010;-62
2024/04/13 14:37:25;;;;;;;1.45;1.35;;;;;;;;;;5384379;26;20011;-62
2024/04/13 14:43:26;;;;;;;1.42;1.27;;;;;;;;;;5384271;26;20590;-62
2024/04/13 14:49:27;;;;;;;1.98;1.40;;;;;;;;;;5384071;26;20382;-62
2024/04/13 14:59:17;;;;;;;1.48;1.38;;;;;;;;;;5382890;26;20074;-62
2024/04/13 15:05:18;;;;;;;1.98;1.23;;;;;;;;;;5383824;26;20006;-62